Главная страница
METAR-TAF:

METAR-TAF

Аэропорты :

Бастер, Сент-Китс и Невис

широта: 17-18N, долгота: 062-41W, высота над уровнем моря: 48 м

Текущие метеонаблюдения

Эта сводка был подготовлена 7 часа и 25 минут назад, в 02:00 UTC
Ветер 10 Узел от восточно-северо-восточный
Температура 26°C
Влажность 84%
Давление 1017 hPa
Видимость 10 км и более
небольшая облачность на высоте 2000 фута

METAR: TKPK 160200Z 07010KT 9999 FEW020 26/23 Q1017

Время: 05:25 (09:25 UTC)

Прогноз

Эта сводка был подготовлена 3 часа и 50 минут назад, в 05:35 UTC
Прогноз действительный с 16-го 06 UTC до 17-го 06 UTC
Ветер 10 Узел от восточно-северо-восточный
Видимость: 10 км
небольшая облачность на высоте 2000 фута
С 16-го 1500 UTC
Ветер 11 Узел от восточный
Видимость: 10 км
Отдельные облака на высоте 2200 фута

TAF: TKPK 160535Z 1606/1706 07010KT P6SM FEW020 FM161500 08011KT P6SM SCT022 AMD NOT SKED TIL 161100

Метеонаблюдения и прогнозы для более 4000 аэропортов (сводки METAR и TAF).

Имеющиеся станции представлены на карте желтыми и красными точками.

Чтобы увидеть название станции, наведите на нее мышь.

Затем щелкните, чтобы увидеть метеонаблюдения и метеопрогнозы.

Управление картой: чтобы увеличить масштаб, щелкните зеленые кнопки с черным крестиком; чтобы уменьшить масштаб, щелкните зеленую кнопку с тире; для просмотра соседних карт щелкайте зеленые стрелки.


METAR-TAF: